sensor_id;sensor_type;location;lat;lon;timestamp;pressure;altitude;pressure_sealevel;temperature;humidity
39363;BME280;25088;43.238;23.110;2023-04-24T00:00:22;96054.56;;;15.19;49.92
39363;BME280;25088;43.238;23.110;2023-04-24T00:02:48;96056.88;;;15.12;49.13
39363;BME280;25088;43.238;23.110;2023-04-24T00:05:15;96069.84;;;15.06;50.33
39363;BME280;25088;43.238;23.110;2023-04-24T00:07:41;96064.97;;;14.79;52.09
39363;BME280;25088;43.238;23.110;2023-04-24T00:10:08;96064.69;;;14.57;52.67
39363;BME280;25088;43.238;23.110;2023-04-24T00:12:33;96065.81;;;14.27;53.33
39363;BME280;25088;43.238;23.110;2023-04-24T00:14:59;96097.72;;;14.22;54.43
39363;BME280;25088;43.238;23.110;2023-04-24T00:17:25;96092.13;;;14.04;56.07
39363;BME280;25088;43.238;23.110;2023-04-24T00:19:51;96092.09;;;13.75;58.13
39363;BME280;25088;43.238;23.110;2023-04-24T00:22:17;96096.19;;;13.38;59.81
39363;BME280;25088;43.238;23.110;2023-04-24T00:24:43;96097.72;;;13.05;61.38
39363;BME280;25088;43.238;23.110;2023-04-24T00:27:09;96094.31;;;12.68;62.00
39363;BME280;25088;43.238;23.110;2023-04-24T00:29:34;96081.75;;;12.52;62.74
39363;BME280;25088;43.238;23.110;2023-04-24T00:32:00;96071.94;;;12.46;63.32
39363;BME280;25088;43.238;23.110;2023-04-24T00:34:25;96086.47;;;12.41;64.76
39363;BME280;25088;43.238;23.110;2023-04-24T00:36:51;96090.03;;;12.32;64.79
39363;BME280;25088;43.238;23.110;2023-04-24T00:39:20;96089.25;;;12.16;67.09
39363;BME280;25088;43.238;23.110;2023-04-24T00:41:46;96092.00;;;12.01;67.65
39363;BME280;25088;43.238;23.110;2023-04-24T00:44:11;96083.28;;;11.88;68.63
39363;BME280;25088;43.238;23.110;2023-04-24T00:46:37;96083.25;;;11.83;69.84
39363;BME280;25088;43.238;23.110;2023-04-24T00:49:04;96083.25;;;11.68;70.72
39363;BME280;25088;43.238;23.110;2023-04-24T00:51:30;96089.56;;;11.69;71.55
39363;BME280;25088;43.238;23.110;2023-04-24T00:53:56;96086.81;;;11.69;70.08
39363;BME280;25088;43.238;23.110;2023-04-24T00:56:21;96088.16;;;11.71;70.93
39363;BME280;25088;43.238;23.110;2023-04-24T00:58:47;96082.69;;;11.61;71.19
39363;BME280;25088;43.238;23.110;2023-04-24T01:01:12;96084.91;;;11.59;71.93
39363;BME280;25088;43.238;23.110;2023-04-24T01:03:39;96087.06;;;11.57;72.81
39363;BME280;25088;43.238;23.110;2023-04-24T01:06:05;96091.44;;;11.53;73.05
39363;BME280;25088;43.238;23.110;2023-04-24T01:08:32;96087.03;;;11.26;75.50
39363;BME280;25088;43.238;23.110;2023-04-24T01:11:00;96090.28;;;11.08;77.76
39363;BME280;25088;43.238;23.110;2023-04-24T01:13:28;96086.41;;;10.88;77.29
39363;BME280;25088;43.238;23.110;2023-04-24T01:15:54;96079.28;;;10.87;78.00
39363;BME280;25088;43.238;23.110;2023-04-24T01:18:20;96090.50;;;10.91;78.14
39363;BME280;25088;43.238;23.110;2023-04-24T01:20:48;96100.03;;;10.83;79.85
39363;BME280;25088;43.238;23.110;2023-04-24T01:23:16;96105.47;;;10.73;80.25
39363;BME280;25088;43.238;23.110;2023-04-24T01:25:42;96120.44;;;10.66;78.99
39363;BME280;25088;43.238;23.110;2023-04-24T01:28:08;96122.03;;;10.56;80.40
39363;BME280;25088;43.238;23.110;2023-04-24T01:30:34;96109.69;;;10.44;81.88
39363;BME280;25088;43.238;23.110;2023-04-24T01:32:59;96121.16;;;10.41;82.56
39363;BME280;25088;43.238;23.110;2023-04-24T01:35:25;96122.03;;;10.56;81.93
39363;BME280;25088;43.238;23.110;2023-04-24T01:37:51;96125.53;;;10.47;82.82
39363;BME280;25088;43.238;23.110;2023-04-24T01:40:17;96134.59;;;10.57;82.61
39363;BME280;25088;43.238;23.110;2023-04-24T01:42:42;96130.16;;;10.41;83.96
39363;BME280;25088;43.238;23.110;2023-04-24T01:45:10;96154.41;;;10.38;85.28
39363;BME280;25088;43.238;23.110;2023-04-24T01:47:36;96158.22;;;10.37;84.85
39363;BME280;25088;43.238;23.110;2023-04-24T01:50:02;96129.13;;;10.10;85.54
39363;BME280;25088;43.238;23.110;2023-04-24T01:52:28;96158.44;;;10.25;85.40
39363;BME280;25088;43.238;23.110;2023-04-24T01:54:56;96155.91;;;10.23;85.62
39363;BME280;25088;43.238;23.110;2023-04-24T01:57:24;96174.47;;;10.21;85.72
39363;BME280;25088;43.238;23.110;2023-04-24T01:59:50;96172.25;;;10.18;86.09
39363;BME280;25088;43.238;23.110;2023-04-24T02:02:16;96175.22;;;10.12;87.15
39363;BME280;25088;43.238;23.110;2023-04-24T02:04:41;96164.66;;;10.20;87.34
39363;BME280;25088;43.238;23.110;2023-04-24T02:07:07;96168.41;;;10.14;88.08
39363;BME280;25088;43.238;23.110;2023-04-24T02:09:33;96165.66;;;10.14;88.56
39363;BME280;25088;43.238;23.110;2023-04-24T02:11:58;96170.34;;;10.19;88.04
39363;BME280;25088;43.238;23.110;2023-04-24T02:14:24;96165.91;;;10.07;89.09
39363;BME280;25088;43.238;23.110;2023-04-24T02:16:49;96170.22;;;10.03;90.25
39363;BME280;25088;43.238;23.110;2023-04-24T02:19:15;96153.00;;;9.98;90.82
39363;BME280;25088;43.238;23.110;2023-04-24T02:21:40;96153.25;;;9.91;91.38
39363;BME280;25088;43.238;23.110;2023-04-24T02:24:06;96157.25;;;9.83;93.04
39363;BME280;25088;43.238;23.110;2023-04-24T02:26:31;96147.94;;;9.79;93.22
39363;BME280;25088;43.238;23.110;2023-04-24T02:28:57;96144.06;;;9.70;94.41
39363;BME280;25088;43.238;23.110;2023-04-24T02:31:22;96146.19;;;9.63;94.69
39363;BME280;25088;43.238;23.110;2023-04-24T02:33:48;96147.22;;;9.57;95.35
39363;BME280;25088;43.238;23.110;2023-04-24T02:36:13;96130.56;;;9.53;96.17
39363;BME280;25088;43.238;23.110;2023-04-24T02:38:39;96129.66;;;9.43;96.82
39363;BME280;25088;43.238;23.110;2023-04-24T02:41:05;96116.28;;;9.14;98.72
39363;BME280;25088;43.238;23.110;2023-04-24T02:43:32;96126.22;;;9.25;99.35
39363;BME280;25088;43.238;23.110;2023-04-24T02:45:57;96122.69;;;9.25;99.53
39363;BME280;25088;43.238;23.110;2023-04-24T02:48:23;96120.13;;;9.18;99.79
39363;BME280;25088;43.238;23.110;2023-04-24T02:50:49;96116.81;;;9.11;100.00
39363;BME280;25088;43.238;23.110;2023-04-24T02:53:15;96112.31;;;9.00;100.00
39363;BME280;25088;43.238;23.110;2023-04-24T02:55:41;96101.38;;;8.95;100.00
39363;BME280;25088;43.238;23.110;2023-04-24T02:58:06;96118.59;;;9.00;100.00
39363;BME280;25088;43.238;23.110;2023-04-24T03:00:32;96121.56;;;8.99;100.00
39363;BME280;25088;43.238;23.110;2023-04-24T03:02:57;96127.06;;;9.04;100.00
39363;BME280;25088;43.238;23.110;2023-04-24T03:05:23;96135.59;;;9.13;100.00
39363;BME280;25088;43.238;23.110;2023-04-24T03:07:48;96137.50;;;9.12;100.00
39363;BME280;25088;43.238;23.110;2023-04-24T03:10:15;96138.88;;;9.15;100.00
39363;BME280;25088;43.238;23.110;2023-04-24T03:12:40;96131.25;;;9.12;100.00
39363;BME280;25088;43.238;23.110;2023-04-24T03:15:06;96132.72;;;9.24;100.00
39363;BME280;25088;43.238;23.110;2023-04-24T03:17:32;96140.19;;;9.34;100.00
39363;BME280;25088;43.238;23.110;2023-04-24T03:19:57;96142.44;;;9.42;100.00
39363;BME280;25088;43.238;23.110;2023-04-24T03:22:23;96122.56;;;9.42;100.00
39363;BME280;25088;43.238;23.110;2023-04-24T03:24:48;96138.00;;;9.31;100.00
39363;BME280;25088;43.238;23.110;2023-04-24T03:27:14;96144.41;;;9.47;100.00
39363;BME280;25088;43.238;23.110;2023-04-24T03:29:39;96141.94;;;9.45;100.00
39363;BME280;25088;43.238;23.110;2023-04-24T03:32:04;96159.66;;;9.48;100.00
39363;BME280;25088;43.238;23.110;2023-04-24T03:34:30;96154.84;;;9.28;100.00
39363;BME280;25088;43.238;23.110;2023-04-24T03:36:55;96140.66;;;9.26;100.00
39363;BME280;25088;43.238;23.110;2023-04-24T03:39:21;96150.47;;;9.27;100.00
39363;BME280;25088;43.238;23.110;2023-04-24T03:41:46;96163.31;;;9.31;100.00
39363;BME280;25088;43.238;23.110;2023-04-24T03:44:12;96146.41;;;9.29;100.00
39363;BME280;25088;43.238;23.110;2023-04-24T03:46:37;96156.88;;;9.43;100.00
39363;BME280;25088;43.238;23.110;2023-04-24T03:49:03;96141.03;;;9.40;100.00
39363;BME280;25088;43.238;23.110;2023-04-24T03:51:28;96145.50;;;9.46;100.00
39363;BME280;25088;43.238;23.110;2023-04-24T03:53:55;96141.47;;;9.53;100.00
39363;BME280;25088;43.238;23.110;2023-04-24T03:56:21;96147.78;;;9.59;100.00
39363;BME280;25088;43.238;23.110;2023-04-24T03:58:46;96140.81;;;9.73;100.00
39363;BME280;25088;43.238;23.110;2023-04-24T04:01:11;96142.50;;;9.79;100.00
39363;BME280;25088;43.238;23.110;2023-04-24T04:03:37;96146.69;;;9.92;99.77
39363;BME280;25088;43.238;23.110;2023-04-24T04:06:03;96127.41;;;10.04;98.98
39363;BME280;25088;43.238;23.110;2023-04-24T04:08:28;96123.94;;;10.14;98.78
39363;BME280;25088;43.238;23.110;2023-04-24T04:10:53;96123.78;;;10.25;96.11
39363;BME280;25088;43.238;23.110;2023-04-24T04:13:20;96129.38;;;10.14;98.92
39363;BME280;25088;43.238;23.110;2023-04-24T04:15:45;96122.75;;;9.99;98.91
39363;BME280;25088;43.238;23.110;2023-04-24T04:18:10;96125.53;;;10.04;98.00
39363;BME280;25088;43.238;23.110;2023-04-24T04:20:36;96119.81;;;10.06;99.34
39363;BME280;25088;43.238;23.110;2023-04-24T04:23:02;96131.69;;;9.90;100.00
39363;BME280;25088;43.238;23.110;2023-04-24T04:25:27;96126.38;;;9.73;100.00
39363;BME280;25088;43.238;23.110;2023-04-24T04:27:54;96115.72;;;9.71;100.00
39363;BME280;25088;43.238;23.110;2023-04-24T04:30:20;96121.56;;;9.85;100.00
39363;BME280;25088;43.238;23.110;2023-04-24T04:32:46;96115.97;;;10.02;100.00
39363;BME280;25088;43.238;23.110;2023-04-24T04:35:11;96109.78;;;10.17;100.00
39363;BME280;25088;43.238;23.110;2023-04-24T04:37:37;96109.59;;;10.28;100.00
39363;BME280;25088;43.238;23.110;2023-04-24T04:40:03;96109.50;;;10.18;100.00
39363;BME280;25088;43.238;23.110;2023-04-24T04:42:32;96115.06;;;10.28;99.87
39363;BME280;25088;43.238;23.110;2023-04-24T04:45:00;96114.81;;;10.30;98.93
39363;BME280;25088;43.238;23.110;2023-04-24T04:47:26;96106.97;;;10.49;98.10
39363;BME280;25088;43.238;23.110;2023-04-24T04:49:52;96102.69;;;10.63;97.02
39363;BME280;25088;43.238;23.110;2023-04-24T04:52:18;96112.06;;;10.87;95.49
39363;BME280;25088;43.238;23.110;2023-04-24T04:54:44;96108.31;;;11.09;92.32
39363;BME280;25088;43.238;23.110;2023-04-24T04:57:10;96095.53;;;11.25;91.51
39363;BME280;25088;43.238;23.110;2023-04-24T04:59:35;96090.59;;;11.32;90.40
39363;BME280;25088;43.238;23.110;2023-04-24T05:02:01;96099.91;;;11.41;92.08
39363;BME280;25088;43.238;23.110;2023-04-24T05:04:26;96104.56;;;11.56;90.63
39363;BME280;25088;43.238;23.110;2023-04-24T05:06:52;96089.28;;;11.55;89.02
39363;BME280;25088;43.238;23.110;2023-04-24T05:09:18;96092.00;;;11.70;88.54
39363;BME280;25088;43.238;23.110;2023-04-24T05:11:43;96093.94;;;11.75;87.87
39363;BME280;25088;43.238;23.110;2023-04-24T05:14:09;96100.22;;;11.96;87.18
39363;BME280;25088;43.238;23.110;2023-04-24T05:16:34;96094.47;;;12.07;86.90
39363;BME280;25088;43.238;23.110;2023-04-24T05:19:00;96102.41;;;12.04;86.80
39363;BME280;25088;43.238;23.110;2023-04-24T05:21:25;96094.19;;;12.14;87.02
39363;BME280;25088;43.238;23.110;2023-04-24T05:23:52;96087.31;;;12.27;85.95
39363;BME280;25088;43.238;23.110;2023-04-24T05:26:17;96095.50;;;12.37;86.59
39363;BME280;25088;43.238;23.110;2023-04-24T05:28:43;96094.13;;;12.45;87.14
39363;BME280;25088;43.238;23.110;2023-04-24T05:31:08;96097.13;;;12.43;88.64
39363;BME280;25088;43.238;23.110;2023-04-24T05:33:34;96088.66;;;12.39;89.61
39363;BME280;25088;43.238;23.110;2023-04-24T05:35:59;96085.13;;;12.34;90.13
39363;BME280;25088;43.238;23.110;2023-04-24T05:38:25;96093.03;;;12.46;89.04
39363;BME280;25088;43.238;23.110;2023-04-24T05:40:50;96089.19;;;12.47;90.78
39363;BME280;25088;43.238;23.110;2023-04-24T05:43:16;96085.59;;;12.56;92.89
39363;BME280;25088;43.238;23.110;2023-04-24T05:45:41;96076.28;;;12.52;92.79
39363;BME280;25088;43.238;23.110;2023-04-24T05:48:07;96072.34;;;12.84;70.88
39363;BME280;25088;43.238;23.110;2023-04-24T05:50:32;96064.31;;;13.47;69.84
39363;BME280;25088;43.238;23.110;2023-04-24T05:52:57;96049.88;;;14.00;67.80
39363;BME280;25088;43.238;23.110;2023-04-24T05:55:24;96060.75;;;14.39;67.51
39363;BME280;25088;43.238;23.110;2023-04-24T05:57:50;96056.63;;;14.65;68.29
39363;BME280;25088;43.238;23.110;2023-04-24T06:00:16;96047.97;;;14.77;73.05
39363;BME280;25088;43.238;23.110;2023-04-24T06:02:44;96059.59;;;14.69;73.34
39363;BME280;25088;43.238;23.110;2023-04-24T06:05:10;96068.34;;;14.71;69.65
39363;BME280;25088;43.238;23.110;2023-04-24T06:07:36;96070.78;;;14.54;69.62
39363;BME280;25088;43.238;23.110;2023-04-24T06:10:01;96080.69;;;14.50;70.84
39363;BME280;25088;43.238;23.110;2023-04-24T06:12:27;96075.34;;;14.63;71.49
39363;BME280;25088;43.238;23.110;2023-04-24T06:14:53;96087.66;;;14.66;71.31
39363;BME280;25088;43.238;23.110;2023-04-24T06:17:19;96074.53;;;14.82;72.31
39363;BME280;25088;43.238;23.110;2023-04-24T06:19:44;96077.19;;;14.92;68.62
39363;BME280;25088;43.238;23.110;2023-04-24T06:22:10;96079.44;;;15.09;68.32
39363;BME280;25088;43.238;23.110;2023-04-24T06:24:35;96063.16;;;15.31;68.27
39363;BME280;25088;43.238;23.110;2023-04-24T06:27:01;96067.25;;;15.52;68.95
39363;BME280;25088;43.238;23.110;2023-04-24T06:29:27;96068.03;;;15.77;67.46
39363;BME280;25088;43.238;23.110;2023-04-24T06:31:52;96082.03;;;15.94;66.76
39363;BME280;25088;43.238;23.110;2023-04-24T06:34:18;96069.69;;;15.92;66.05
39363;BME280;25088;43.238;23.110;2023-04-24T06:36:44;96081.63;;;15.87;66.65
39363;BME280;25088;43.238;23.110;2023-04-24T06:39:09;96081.34;;;16.02;67.60
39363;BME280;25088;43.238;23.110;2023-04-24T06:41:35;96080.91;;;15.95;68.11
39363;BME280;25088;43.238;23.110;2023-04-24T06:44:00;96080.56;;;15.83;69.88
39363;BME280;25088;43.238;23.110;2023-04-24T06:46:26;96082.16;;;15.51;71.30
39363;BME280;25088;43.238;23.110;2023-04-24T06:48:53;96091.28;;;15.47;72.15
39363;BME280;25088;43.238;23.110;2023-04-24T06:51:23;96095.34;;;15.12;72.05
39363;BME280;25088;43.238;23.110;2023-04-24T06:53:49;96098.69;;;14.61;75.03
39363;BME280;25088;43.238;23.110;2023-04-24T06:56:15;96098.53;;;14.52;79.87
39363;BME280;25088;43.238;23.110;2023-04-24T06:58:41;96111.94;;;14.59;82.01
39363;BME280;25088;43.238;23.110;2023-04-24T07:01:06;96123.63;;;14.69;81.05
39363;BME280;25088;43.238;23.110;2023-04-24T07:03:32;96115.19;;;14.61;78.58
39363;BME280;25088;43.238;23.110;2023-04-24T07:05:57;96118.13;;;14.69;80.05
39363;BME280;25088;43.238;23.110;2023-04-24T07:08:23;96116.31;;;14.84;79.66
39363;BME280;25088;43.238;23.110;2023-04-24T07:10:49;96118.19;;;14.88;79.75
39363;BME280;25088;43.238;23.110;2023-04-24T07:13:16;96121.38;;;14.95;77.92
39363;BME280;25088;43.238;23.110;2023-04-24T07:15:42;96118.88;;;14.99;76.17
39363;BME280;25088;43.238;23.110;2023-04-24T07:18:08;96138.47;;;14.92;79.43
39363;BME280;25088;43.238;23.110;2023-04-24T07:20:33;96133.03;;;14.87;81.96
39363;BME280;25088;43.238;23.110;2023-04-24T07:22:59;96141.22;;;14.92;79.76
39363;BME280;25088;43.238;23.110;2023-04-24T07:25:25;96134.59;;;14.69;78.43
39363;BME280;25088;43.238;23.110;2023-04-24T07:27:50;96135.06;;;14.53;81.73
39363;BME280;25088;43.238;23.110;2023-04-24T07:30:16;96135.41;;;14.41;83.84
39363;BME280;25088;43.238;23.110;2023-04-24T07:32:41;96145.34;;;14.37;86.15
39363;BME280;25088;43.238;23.110;2023-04-24T07:35:07;96137.34;;;14.40;88.11
39363;BME280;25088;43.238;23.110;2023-04-24T07:37:34;96123.47;;;14.56;85.19
39363;BME280;25088;43.238;23.110;2023-04-24T07:40:00;96122.16;;;14.77;81.67
39363;BME280;25088;43.238;23.110;2023-04-24T07:42:25;96108.56;;;15.10;80.90
39363;BME280;25088;43.238;23.110;2023-04-24T07:44:51;96098.34;;;15.53;80.23
39363;BME280;25088;43.238;23.110;2023-04-24T07:47:16;96087.84;;;15.93;75.90
39363;BME280;25088;43.238;23.110;2023-04-24T07:49:42;96078.13;;;16.14;76.23
39363;BME280;25088;43.238;23.110;2023-04-24T07:52:08;96084.38;;;16.34;75.14
39363;BME280;25088;43.238;23.110;2023-04-24T07:54:33;96085.81;;;16.45;76.00
39363;BME280;25088;43.238;23.110;2023-04-24T07:56:58;96080.22;;;16.50;72.87
39363;BME280;25088;43.238;23.110;2023-04-24T07:59:25;96071.97;;;16.64;72.69
39363;BME280;25088;43.238;23.110;2023-04-24T08:01:50;96059.16;;;16.73;71.78
39363;BME280;25088;43.238;23.110;2023-04-24T08:04:16;96058.13;;;16.83;70.31
39363;BME280;25088;43.238;23.110;2023-04-24T08:06:43;96056.06;;;16.88;70.29
39363;BME280;25088;43.238;23.110;2023-04-24T08:09:08;96053.41;;;17.11;69.13
39363;BME280;25088;43.238;23.110;2023-04-24T08:11:34;96051.72;;;17.23;67.49
39363;BME280;25088;43.238;23.110;2023-04-24T08:13:59;96044.00;;;17.48;68.01
39363;BME280;25088;43.238;23.110;2023-04-24T08:16:25;96036.38;;;17.90;64.50
39363;BME280;25088;43.238;23.110;2023-04-24T08:18:52;96042.69;;;18.35;62.60
39363;BME280;25088;43.238;23.110;2023-04-24T08:21:18;96038.00;;;18.75;59.76
39363;BME280;25088;43.238;23.110;2023-04-24T08:23:44;96036.75;;;18.99;59.03
39363;BME280;25088;43.238;23.110;2023-04-24T08:26:11;96041.41;;;19.38;55.86
39363;BME280;25088;43.238;23.110;2023-04-24T08:28:37;96038.84;;;19.76;55.36
39363;BME280;25088;43.238;23.110;2023-04-24T08:31:03;96041.44;;;20.63;54.43
39363;BME280;25088;43.238;23.110;2023-04-24T08:33:28;96028.94;;;21.66;50.18
39363;BME280;25088;43.238;23.110;2023-04-24T08:36:03;96022.75;;;21.49;50.90
39363;BME280;25088;43.238;23.110;2023-04-24T08:38:29;96018.91;;;21.32;51.32
39363;BME280;25088;43.238;23.110;2023-04-24T08:40:54;96026.94;;;21.34;51.38
39363;BME280;25088;43.238;23.110;2023-04-24T08:43:22;96026.78;;;21.22;51.55
39363;BME280;25088;43.238;23.110;2023-04-24T08:45:48;96027.38;;;21.06;51.02
39363;BME280;25088;43.238;23.110;2023-04-24T08:48:14;96023.78;;;21.06;49.53
39363;BME280;25088;43.238;23.110;2023-04-24T08:50:40;96026.56;;;21.06;49.72
39363;BME280;25088;43.238;23.110;2023-04-24T08:53:08;96029.38;;;21.27;49.83
39363;BME280;25088;43.238;23.110;2023-04-24T08:55:34;96024.28;;;21.79;47.12
39363;BME280;25088;43.238;23.110;2023-04-24T08:58:01;96003.38;;;22.27;43.80
39363;BME280;25088;43.238;23.110;2023-04-24T09:00:28;96015.91;;;22.79;42.88
39363;BME280;25088;43.238;23.110;2023-04-24T09:02:54;96009.66;;;22.94;43.03
39363;BME280;25088;43.238;23.110;2023-04-24T09:05:21;96008.13;;;23.21;42.28
39363;BME280;25088;43.238;23.110;2023-04-24T09:07:53;96004.97;;;22.86;42.51
39363;BME280;25088;43.238;23.110;2023-04-24T09:10:20;96006.50;;;22.83;43.01
39363;BME280;25088;43.238;23.110;2023-04-24T09:12:46;96012.31;;;22.78;43.98
39363;BME280;25088;43.238;23.110;2023-04-24T09:15:12;96001.06;;;23.24;42.82
39363;BME280;25088;43.238;23.110;2023-04-24T09:17:38;96002.91;;;23.19;43.14
39363;BME280;25088;43.238;23.110;2023-04-24T09:20:04;95994.03;;;23.42;41.42
39363;BME280;25088;43.238;23.110;2023-04-24T09:22:30;96002.84;;;23.68;41.46
39363;BME280;25088;43.238;23.110;2023-04-24T09:25:04;96001.34;;;23.99;41.42
39363;BME280;25088;43.238;23.110;2023-04-24T09:27:31;96009.38;;;24.16;39.83
39363;BME280;25088;43.238;23.110;2023-04-24T09:29:57;95994.47;;;24.24;40.42
39363;BME280;25088;43.238;23.110;2023-04-24T09:32:24;95993.94;;;24.35;41.66
39363;BME280;25088;43.238;23.110;2023-04-24T09:35:11;95991.84;;;24.60;41.19
39363;BME280;25088;43.238;23.110;2023-04-24T09:37:46;95995.09;;;24.78;41.20
39363;BME280;25088;43.238;23.110;2023-04-24T09:40:21;95987.25;;;25.15;39.41
39363;BME280;25088;43.238;23.110;2023-04-24T09:42:54;95995.25;;;25.32;38.68
39363;BME280;25088;43.238;23.110;2023-04-24T09:45:22;95995.88;;;25.25;39.14
39363;BME280;25088;43.238;23.110;2023-04-24T09:47:51;95995.91;;;25.45;38.78
39363;BME280;25088;43.238;23.110;2023-04-24T09:50:18;96003.31;;;25.72;39.17
39363;BME280;25088;43.238;23.110;2023-04-24T09:52:46;96002.78;;;26.02;36.94
39363;BME280;25088;43.238;23.110;2023-04-24T09:55:19;95987.06;;;27.28;35.19
39363;BME280;25088;43.238;23.110;2023-04-24T09:57:49;95985.72;;;27.18;36.55
39363;BME280;25088;43.238;23.110;2023-04-24T10:00:22;95990.94;;;27.46;32.93
39363;BME280;25088;43.238;23.110;2023-04-24T10:02:54;95988.19;;;27.50;33.58
39363;BME280;25088;43.238;23.110;2023-04-24T10:05:23;95980.78;;;27.91;31.57
39363;BME280;25088;43.238;23.110;2023-04-24T10:07:48;95975.09;;;28.21;31.94
39363;BME280;25088;43.238;23.110;2023-04-24T10:10:14;95976.25;;;28.17;32.12
39363;BME280;25088;43.238;23.110;2023-04-24T10:12:40;95968.19;;;28.49;32.95
39363;BME280;25088;43.238;23.110;2023-04-24T10:15:06;95958.66;;;28.57;32.39
39363;BME280;25088;43.238;23.110;2023-04-24T10:17:32;95966.88;;;28.76;30.95
39363;BME280;25088;43.238;23.110;2023-04-24T10:20:00;95967.78;;;28.13;31.90
39363;BME280;25088;43.238;23.110;2023-04-24T10:22:26;95972.47;;;27.42;31.85
39363;BME280;25088;43.238;23.110;2023-04-24T10:24:52;95971.22;;;26.44;32.95
39363;BME280;25088;43.238;23.110;2023-04-24T10:27:20;95967.56;;;25.62;34.97
39363;BME280;25088;43.238;23.110;2023-04-24T10:29:47;95953.44;;;26.13;34.82
39363;BME280;25088;43.238;23.110;2023-04-24T10:32:13;95949.50;;;26.60;34.97
39363;BME280;25088;43.238;23.110;2023-04-24T10:34:38;95958.03;;;26.44;34.54
39363;BME280;25088;43.238;23.110;2023-04-24T10:37:04;95954.25;;;26.56;35.21
39363;BME280;25088;43.238;23.110;2023-04-24T10:39:29;95958.53;;;26.30;35.95
39363;BME280;25088;43.238;23.110;2023-04-24T10:41:55;95964.94;;;25.34;36.08
39363;BME280;25088;43.238;23.110;2023-04-24T10:44:23;95953.47;;;24.41;36.64
39363;BME280;25088;43.238;23.110;2023-04-24T10:46:53;95953.78;;;24.67;36.62
39363;BME280;25088;43.238;23.110;2023-04-24T10:49:28;95948.19;;;24.67;36.42
39363;BME280;25088;43.238;23.110;2023-04-24T10:51:54;95959.31;;;24.36;36.86
39363;BME280;25088;43.238;23.110;2023-04-24T10:54:29;95969.09;;;23.86;38.81
39363;BME280;25088;43.238;23.110;2023-04-24T10:59:50;95969.94;;;23.21;41.84
39363;BME280;25088;43.238;23.110;2023-04-24T11:02:17;95968.47;;;23.00;42.44
39363;BME280;25088;43.238;23.110;2023-04-24T11:04:43;95986.00;;;23.00;44.15
39363;BME280;25088;43.238;23.110;2023-04-24T16:50:15;95818.66;;;18.23;79.61
39363;BME280;25088;43.238;23.110;2023-04-24T16:52:41;95820.97;;;17.81;82.34
39363;BME280;25088;43.238;23.110;2023-04-24T16:55:07;95801.44;;;17.38;84.60
39363;BME280;25088;43.238;23.110;2023-04-24T16:57:34;95824.09;;;17.03;87.10
39363;BME280;25088;43.238;23.110;2023-04-24T16:59:59;95802.25;;;16.48;89.59
39363;BME280;25088;43.238;23.110;2023-04-24T17:02:25;95820.50;;;16.44;90.89
39363;BME280;25088;43.238;23.110;2023-04-24T17:04:51;95819.25;;;16.28;92.38
39363;BME280;25088;43.238;23.110;2023-04-24T17:07:16;95832.19;;;16.27;92.97
39363;BME280;25088;43.238;23.110;2023-04-24T17:09:42;95820.72;;;15.84;96.17
39363;BME280;25088;43.238;23.110;2023-04-24T17:12:08;95831.72;;;15.98;96.82
39363;BME280;25088;43.238;23.110;2023-04-24T17:14:35;95853.63;;;15.89;99.13
39363;BME280;25088;43.238;23.110;2023-04-24T17:17:01;95843.97;;;15.92;99.28
39363;BME280;25088;43.238;23.110;2023-04-24T17:19:27;95825.41;;;15.84;98.88
39363;BME280;25088;43.238;23.110;2023-04-24T17:21:52;95843.75;;;15.88;97.93
39363;BME280;25088;43.238;23.110;2023-04-24T17:24:18;95851.69;;;15.76;100.00
39363;BME280;25088;43.238;23.110;2023-04-24T17:26:44;95851.78;;;15.71;100.00
39363;BME280;25088;43.238;23.110;2023-04-24T17:29:10;95836.22;;;15.66;99.93
39363;BME280;25088;43.238;23.110;2023-04-24T17:31:35;95858.03;;;15.76;99.25
39363;BME280;25088;43.238;23.110;2023-04-24T17:34:01;95853.44;;;15.72;100.00
39363;BME280;25088;43.238;23.110;2023-04-24T17:36:28;95861.97;;;15.57;100.00
39363;BME280;25088;43.238;23.110;2023-04-24T17:38:54;95846.03;;;15.40;100.00
39363;BME280;25088;43.238;23.110;2023-04-24T17:41:19;95851.50;;;15.26;100.00
39363;BME280;25088;43.238;23.110;2023-04-24T17:43:45;95845.59;;;15.19;100.00
39363;BME280;25088;43.238;23.110;2023-04-24T17:46:11;95850.22;;;15.05;100.00
39363;BME280;25088;43.238;23.110;2023-04-24T17:48:37;95848.09;;;15.15;100.00
39363;BME280;25088;43.238;23.110;2023-04-24T17:51:03;95847.91;;;15.12;100.00
39363;BME280;25088;43.238;23.110;2023-04-24T17:53:28;95851.59;;;14.88;100.00
39363;BME280;25088;43.238;23.110;2023-04-24T17:55:54;95847.66;;;14.76;100.00
39363;BME280;25088;43.238;23.110;2023-04-24T17:58:23;95847.66;;;14.57;100.00
39363;BME280;25088;43.238;23.110;2023-04-24T18:00:49;95848.06;;;14.69;100.00
39363;BME280;25088;43.238;23.110;2023-04-24T18:03:15;95843.75;;;14.63;100.00
39363;BME280;25088;43.238;23.110;2023-04-24T18:05:40;95830.59;;;14.79;100.00
39363;BME280;25088;43.238;23.110;2023-04-24T18:08:06;95848.22;;;14.91;100.00
39363;BME280;25088;43.238;23.110;2023-04-24T18:10:32;95852.03;;;14.77;100.00
39363;BME280;25088;43.238;23.110;2023-04-24T18:13:01;95844.34;;;14.60;100.00
39363;BME280;25088;43.238;23.110;2023-04-24T18:15:27;95830.53;;;14.65;100.00
39363;BME280;25088;43.238;23.110;2023-04-24T18:17:53;95820.44;;;14.60;100.00
39363;BME280;25088;43.238;23.110;2023-04-24T18:20:18;95812.66;;;14.67;100.00
39363;BME280;25088;43.238;23.110;2023-04-24T18:22:44;95840.47;;;14.61;100.00
39363;BME280;25088;43.238;23.110;2023-04-24T18:25:11;95839.88;;;14.64;100.00
39363;BME280;25088;43.238;23.110;2023-04-24T18:27:38;95842.72;;;14.59;100.00
39363;BME280;25088;43.238;23.110;2023-04-24T18:30:05;95840.84;;;14.73;100.00